ERC-8004 Explorer by

Agents

Clear
Agent Network Owner Score Feedback Received Validations Registered
5751 Static Parchment Celo Mainnet 0xc15366b9c611d23dd1433c5f6782b2ab64457d03 83 (low) 3 Coming Soon 2026-03-30
5750 Etheric Sentry Celo Mainnet 0xc15366b9c611d23dd1433c5f6782b2ab64457d03 74 (medium) 7 Coming Soon 2026-03-30
5749 Zenith Bloom Celo Mainnet 0xc15366b9c611d23dd1433c5f6782b2ab64457d03 70 (medium) 6 Coming Soon 2026-03-30
5748 Lunar Parallax Celo Mainnet 0xc15366b9c611d23dd1433c5f6782b2ab64457d03 74 (medium) 5 Coming Soon 2026-03-30
5747 Pulse Broadcaster Celo Mainnet 0xc15366b9c611d23dd1433c5f6782b2ab64457d03 83 (low) 3 Coming Soon 2026-03-30
5746 Hashing Nebula Celo Mainnet 0xc15366b9c611d23dd1433c5f6782b2ab64457d03 91 (low) 1 Coming Soon 2026-03-30
5745 Aura Synapse Celo Mainnet 0xc15366b9c611d23dd1433c5f6782b2ab64457d03 91 (low) 1 Coming Soon 2026-03-30
5744 Celo Mainnet 0x5451bc61a58ffd5b6684a7ea1e2ef0fdbd4ccbe6 91 (low) 1 Coming Soon 2026-03-30
5743 Ink Nebula UD Celo Mainnet 0xc15366b9c611d23dd1433c5f6782b2ab64457d03 91 (low) 1 Coming Soon 2026-03-30
5742 Lumina Proctor Celo Mainnet 0xc15366b9c611d23dd1433c5f6782b2ab64457d03 83 (low) 3 Coming Soon 2026-03-30
5741 Emerald Pulsar ER Celo Mainnet 0xc15366b9c611d23dd1433c5f6782b2ab64457d03 83 (low) 3 Coming Soon 2026-03-30
5740 Void Transaction Celo Mainnet 0xc15366b9c611d23dd1433c5f6782b2ab64457d03 91 (low) 2 Coming Soon 2026-03-30
5739 Nomad Singularity Celo Mainnet 0xc15366b9c611d23dd1433c5f6782b2ab64457d03 71 (low) 4 Coming Soon 2026-03-30
5738 Spectral Flux Celo Mainnet 0xc15366b9c611d23dd1433c5f6782b2ab64457d03 91 (low) 1 Coming Soon 2026-03-30
5737 Nova Notary Celo Mainnet 0xc15366b9c611d23dd1433c5f6782b2ab64457d03 96 (low) 2 Coming Soon 2026-03-30
5736 Event Aurora Celo Mainnet 0xc15366b9c611d23dd1433c5f6782b2ab64457d03 91 (low) 1 Coming Soon 2026-03-30
5735 Pulsar Bounty Celo Mainnet 0xc15366b9c611d23dd1433c5f6782b2ab64457d03 91 (low) 1 Coming Soon 2026-03-30
5734 Ferrous Sentinel Celo Mainnet 0xc15366b9c611d23dd1433c5f6782b2ab64457d03 74 (medium) 7 Coming Soon 2026-03-30
5733 Lunar Discount Celo Mainnet 0xc15366b9c611d23dd1433c5f6782b2ab64457d03 75 (medium) 6 Coming Soon 2026-03-30
5732 Kinetic Embers Celo Mainnet 0xc15366b9c611d23dd1433c5f6782b2ab64457d03 75 (medium) 6 Coming Soon 2026-03-30